Time;durP1;ratioP1;P1;durP2;ratioP2;P2;SDS_P1;SDS_P2;PMS_P1;PMS_P2;Temp;Humidity;BMP_temperature;BMP_pressure;BME280_temperature;BME280_humidity;BME280_pressure;Samples;Min_cycle;Max_cycle;Signal;HPM_P1;HPM_P2
2021/11/07 00:00:28;;;;;;;5.80;2.28;;;12.60;92.90;;;;;;5025867;28;20476;-60
2021/11/07 00:03:19;;;;;;;5.57;1.65;;;12.60;93.20;;;;;;5027604;28;20443;-59
2021/11/07 00:06:05;;;;;;;2.72;1.90;;;12.60;92.90;;;;;;5027577;28;20123;-60
2021/11/07 00:08:44;;;;;;;2.63;1.85;;;12.50;92.90;;;;;;5026363;28;20063;-60
2021/11/07 00:11:24;;;;;;;6.65;2.15;;;12.50;93.10;;;;;;5015471;28;20046;-60
2021/11/07 00:13:51;;;;;;;5.90;1.75;;;12.50;93.10;;;;;;5026002;28;20045;-60
2021/11/07 00:16:39;;;;;;;5.03;1.92;;;12.50;93.90;;;;;;5026560;28;20065;-60
2021/11/07 00:21:46;;;;;;;3.33;1.77;;;12.50;93.20;;;;;;5023338;28;20045;-60
2021/11/07 00:24:29;;;;;;;4.75;1.75;;;12.50;93.20;;;;;;5025834;28;20103;-59
2021/11/07 00:29:32;;;;;;;3.25;1.80;;;12.40;93.30;;;;;;5026738;28;20148;-59
2021/11/07 00:32:10;;;;;;;7.57;2.22;;;12.70;93.80;;;;;;5025302;28;20065;-60
2021/11/07 00:35:00;;;;;;;3.72;2.03;;;12.40;93.50;;;;;;5025024;28;20579;-60
2021/11/07 00:37:35;;;;;;;4.70;2.08;;;12.50;93.50;;;;;;5026389;28;20053;-60
2021/11/07 00:40:10;;;;;;;3.40;2.10;;;12.50;93.60;;;;;;5025151;28;20081;-60
2021/11/07 00:45:27;;;;;;;4.30;1.65;;;12.40;93.50;;;;;;5025141;28;20650;-59
2021/11/07 00:48:22;;;;;;;4.22;1.33;;;12.40;94.00;;;;;;5024467;28;20049;-60
2021/11/07 00:51:16;;;;;;;3.65;2.05;;;12.30;93.70;;;;;;5025417;28;20100;-59
2021/11/07 00:54:25;;;;;;;3.67;1.75;;;12.30;94.00;;;;;;5026217;28;20061;-60
2021/11/07 00:59:46;;;;;;;2.22;1.42;;;12.30;94.00;;;;;;4977294;28;20072;-60
2021/11/07 01:02:20;;;;;;;6.22;1.70;;;12.40;94.20;;;;;;5025304;28;20049;-60
2021/11/07 01:04:50;;;;;;;4.63;1.42;;;12.30;94.30;;;;;;5026674;28;20413;-60
2021/11/07 01:07:18;;;;;;;4.10;1.67;;;12.30;94.10;;;;;;5025952;28;20057;-60
2021/11/07 01:09:45;;;;;;;6.72;1.70;;;12.30;94.20;;;;;;5025029;28;20081;-59
2021/11/07 01:12:12;;;;;;;3.72;1.60;;;12.30;93.80;;;;;;5026549;28;20100;-60
2021/11/07 01:14:38;;;;;;;4.75;1.80;;;12.30;94.20;;;;;;4679337;28;10000889;-59
2021/11/07 01:17:06;;;;;;;2.30;1.77;;;12.30;93.80;;;;;;5027850;28;20081;-60
2021/11/07 01:19:32;;;;;;;5.72;2.05;;;12.30;93.80;;;;;;5026781;28;20049;-59
2021/11/07 01:22:02;;;;;;;5.53;3.65;;;12.30;93.80;;;;;;5010774;28;20068;-61
2021/11/07 01:24:35;;;;;;;4.18;2.00;;;12.40;94.10;;;;;;5026767;28;20045;-59
2021/11/07 01:27:12;;;;;;;5.75;1.77;;;12.40;94.20;;;;;;5027240;28;20096;-60
2021/11/07 01:29:44;;;;;;;7.75;1.90;;;12.40;94.40;;;;;;5027776;28;20092;-59
2021/11/07 01:32:10;;;;;;;4.20;1.85;;;12.40;94.20;;;;;;5028654;28;20068;-59
2021/11/07 01:37:26;;;;;;;5.28;2.05;;;12.30;94.10;;;;;;5026933;28;20053;-60
2021/11/07 01:40:08;;;;;;;4.35;1.75;;;12.30;94.30;;;;;;5025631;28;20207;-60
2021/11/07 01:42:37;;;;;;;4.80;1.60;;;12.30;94.20;;;;;;5009944;28;20057;-59
2021/11/07 01:45:12;;;;;;;3.13;1.75;;;12.40;94.20;;;;;;5024948;28;20564;-60
2021/11/07 01:47:46;;;;;;;2.10;1.38;;;12.30;94.50;;;;;;5026954;28;20046;-60
2021/11/07 01:50:13;;;;;;;6.75;1.77;;;12.30;94.50;;;;;;5026068;28;20037;-59
2021/11/07 01:52:42;;;;;;;4.43;2.05;;;12.20;94.60;;;;;;5027800;28;20053;-60
2021/11/07 01:55:09;;;;;;;3.22;2.17;;;12.20;94.40;;;;;;5025730;28;20100;-60
2021/11/07 01:57:37;;;;;;;6.32;2.63;;;12.20;94.20;;;;;;5023939;28;20504;-59
2021/11/07 02:00:08;;;;;;;4.65;2.03;;;12.10;94.30;;;;;;5026697;28;20110;-59
2021/11/07 02:02:36;;;;;;;5.45;2.38;;;12.20;94.50;;;;;;5007037;28;20280;-60
2021/11/07 02:05:04;;;;;;;4.50;2.47;;;12.20;94.20;;;;;;5020814;28;20045;-60
2021/11/07 02:07:31;;;;;;;4.22;1.90;;;12.10;94.10;;;;;;5026615;28;20045;-59
2021/11/07 02:09:59;;;;;;;3.45;2.28;;;12.10;94.60;;;;;;5027527;28;20496;-59
2021/11/07 02:12:26;;;;;;;5.07;2.42;;;12.00;94.40;;;;;;5026540;28;20137;-59
2021/11/07 02:14:53;;;;;;;3.72;2.22;;;12.00;94.30;;;;;;5027843;28;20577;-59
2021/11/07 02:17:20;;;;;;;5.55;2.33;;;12.00;94.90;;;;;;5027888;28;20045;-59
2021/11/07 02:19:48;;;;;;;9.30;2.78;;;12.00;94.10;;;;;;5026575;28;20053;-60
2021/11/07 02:22:15;;;;;;;8.60;2.10;;;11.90;94.10;;;;;;5027883;28;20104;-60
2021/11/07 02:24:42;;;;;;;5.32;2.42;;;11.90;94.20;;;;;;5027565;28;20053;-60
2021/11/07 02:27:09;;;;;;;7.65;2.72;;;11.80;94.10;;;;;;5027674;28;20064;-60
2021/11/07 02:29:37;;;;;;;13.45;2.90;;;11.80;94.30;;;;;;5027783;28;20072;-59
2021/11/07 02:32:04;;;;;;;5.05;1.90;;;11.80;94.00;;;;;;5028006;28;20097;-60
2021/11/07 02:34:31;;;;;;;5.40;2.20;;;11.70;93.80;;;;;;5027336;28;20049;-60
2021/11/07 02:36:58;;;;;;;7.55;2.30;;;11.70;93.80;;;;;;5027714;28;20567;-59
2021/11/07 02:39:27;;;;;;;14.57;2.30;;;11.70;93.70;;;;;;5026886;28;20045;-59
2021/11/07 02:41:58;;;;;;;13.25;2.05;;;11.70;93.60;;;;;;5026329;28;20045;-59
2021/11/07 02:44:32;;;;;;;9.73;3.03;;;11.70;92.70;;;;;;5027898;28;20369;-59
2021/11/07 02:47:03;;;;;;;9.15;2.83;;;11.70;93.20;;;;;;5027493;28;20128;-59
2021/11/07 02:49:31;;;;;;;13.77;2.20;;;11.60;92.20;;;;;;5026632;28;20088;-61
2021/11/07 02:51:58;;;;;;;9.48;1.98;;;11.60;91.70;;;;;;5027065;28;20563;-58
2021/11/07 02:54:25;;;;;;;6.18;2.45;;;11.60;91.40;;;;;;5027826;28;20087;-63
2021/11/07 02:56:54;;;;;;;14.23;3.35;;;11.60;90.50;;;;;;5026060;28;20424;-59
2021/11/07 02:59:23;;;;;;;8.77;2.00;;;11.60;88.70;;;;;;5027868;28;20045;-60
2021/11/07 03:01:51;;;;;;;14.02;1.92;;;11.50;88.10;;;;;;5027327;28;20492;-61
2021/11/07 03:04:18;;;;;;;12.50;1.95;;;11.50;87.70;;;;;;5026460;28;20057;-59
2021/11/07 03:06:44;;;;;;;10.35;2.10;;;11.40;87.50;;;;;;5027610;28;20048;-60
2021/11/07 03:09:19;;;;;;;16.45;3.05;;;11.30;85.00;;;;;;5028200;28;20092;-59
2021/11/07 03:11:46;;;;;;;10.50;1.85;;;11.20;81.80;;;;;;5029690;28;20065;-60
2021/11/07 03:14:20;;;;;;;13.98;1.90;;;11.20;84.90;;;;;;4681610;28;10000194;-60
2021/11/07 03:16:47;;;;;;;14.10;1.97;;;11.20;82.60;;;;;;5028582;28;20389;-60
2021/11/07 03:19:14;;;;;;;18.85;3.08;;;11.20;85.80;;;;;;5030995;28;20767;-59
2021/11/07 03:21:41;;;;;;;8.48;2.00;;;11.10;86.40;;;;;;5030665;28;20041;-61
2021/11/07 03:24:08;;;;;;;15.82;2.25;;;11.10;84.30;;;;;;5029815;28;20141;-60
2021/11/07 03:26:37;;;;;;;16.98;4.00;;;11.00;84.30;;;;;;5029621;28;20050;-60
2021/11/07 03:29:05;;;;;;;16.85;3.00;;;10.90;86.20;;;;;;5013870;28;20053;-59
2021/11/07 03:31:42;;;;;;;7.20;1.85;;;10.90;82.90;;;;;;5027842;28;20054;-59
2021/11/07 03:34:18;;;;;;;15.75;2.75;;;10.90;83.60;;;;;;5031095;28;20120;-59
2021/11/07 03:36:50;;;;;;;10.35;2.15;;;10.80;83.40;;;;;;5029676;28;20045;-59
2021/11/07 03:39:18;;;;;;;9.20;3.20;;;10.80;83.30;;;;;;5029561;28;20052;-60
2021/11/07 03:41:45;;;;;;;15.95;1.77;;;10.70;81.90;;;;;;5030330;28;20551;-64
2021/11/07 03:44:13;;;;;;;16.10;2.85;;;10.70;83.60;;;;;;5030841;28;20052;-61
2021/11/07 03:46:40;;;;;;;6.35;2.03;;;10.60;84.70;;;;;;5029442;28;20499;-60
2021/11/07 03:49:07;;;;;;;13.90;2.05;;;10.60;83.90;;;;;;5030453;28;20103;-60
2021/11/07 03:51:35;;;;;;;14.80;2.75;;;10.50;81.80;;;;;;5030443;28;20584;-59
2021/11/07 03:54:03;;;;;;;13.75;2.05;;;10.50;85.50;;;;;;5028951;28;20529;-58
2021/11/07 03:56:30;;;;;;;10.82;2.60;;;10.40;83.10;;;;;;5029244;28;20136;-59
2021/11/07 03:58:57;;;;;;;13.63;2.05;;;10.40;85.00;;;;;;5028968;28;20132;-60
2021/11/07 04:01:24;;;;;;;13.25;1.88;;;10.40;84.80;;;;;;5028207;28;20108;-59
2021/11/07 04:03:50;;;;;;;15.50;3.58;;;10.40;84.60;;;;;;5029817;28;20045;-60
2021/11/07 04:06:17;;;;;;;12.73;2.40;;;10.40;84.70;;;;;;5030465;28;20127;-59
2021/11/07 04:08:44;;;;;;;15.75;3.63;;;10.30;85.10;;;;;;5030364;28;20050;-59
2021/11/07 04:11:11;;;;;;;12.98;2.03;;;10.20;84.00;;;;;;5028937;28;20107;-60
2021/11/07 04:13:39;;;;;;;15.55;3.28;;;10.20;84.60;;;;;;5028829;28;20049;-60
2021/11/07 04:16:07;;;;;;;12.23;2.10;;;10.20;84.80;;;;;;5028948;28;20096;-59
2021/11/07 04:18:35;;;;;;;12.02;2.28;;;10.20;83.20;;;;;;5029347;28;20099;-62
2021/11/07 04:21:01;;;;;;;11.95;1.85;;;10.20;83.80;;;;;;5027697;28;20092;-60
2021/11/07 04:23:28;;;;;;;13.13;2.95;;;10.10;84.90;;;;;;5029615;28;20042;-59
2021/11/07 04:25:56;;;;;;;8.10;1.80;;;10.10;83.60;;;;;;5026070;28;20075;-59
2021/11/07 04:28:23;;;;;;;17.55;2.95;;;10.10;84.20;;;;;;5029426;28;20049;-59
2021/11/07 04:30:50;;;;;;;14.32;3.05;;;10.10;81.30;;;;;;5029279;28;20103;-60
2021/11/07 04:33:17;;;;;;;19.33;2.78;;;10.10;83.70;;;;;;5027755;28;20512;-64
2021/11/07 04:35:44;;;;;;;15.00;2.55;;;10.10;83.60;;;;;;5028719;28;20099;-59
2021/11/07 04:38:10;;;;;;;13.70;3.20;;;10.10;82.10;;;;;;5029499;28;20096;-59
2021/11/07 04:40:37;;;;;;;13.48;2.75;;;10.10;81.50;;;;;;5028111;28;20087;-59
2021/11/07 04:43:04;;;;;;;10.68;2.72;;;10.10;82.10;;;;;;5029158;28;20133;-58
2021/11/07 04:45:31;;;;;;;14.90;2.53;;;10.10;81.60;;;;;;5027519;28;20093;-60
2021/11/07 04:47:58;;;;;;;9.18;2.10;;;10.10;80.70;;;;;;5028650;28;20047;-58
2021/11/07 04:50:25;;;;;;;12.35;2.65;;;10.10;82.30;;;;;;5011203;28;20055;-58
2021/11/07 04:52:53;;;;;;;17.50;3.38;;;10.10;82.10;;;;;;5008183;28;20100;-60
2021/11/07 04:55:20;;;;;;;13.82;2.35;;;10.00;80.60;;;;;;5014120;28;20053;-59
2021/11/07 04:57:47;;;;;;;16.02;2.85;;;10.00;81.60;;;;;;5027135;28;20103;-60
2021/11/07 05:00:19;;;;;;;11.98;3.00;;;10.00;82.10;;;;;;5028430;28;20046;-59
2021/11/07 05:02:47;;;;;;;9.82;1.92;;;10.00;80.30;;;;;;5007576;28;20050;-60
2021/11/07 05:05:14;;;;;;;8.80;1.85;;;10.00;82.10;;;;;;5015013;28;20087;-61
2021/11/07 05:07:40;;;;;;;11.75;2.80;;;9.90;80.90;;;;;;5027518;28;20041;-59
2021/11/07 05:10:08;;;;;;;19.50;4.68;;;9.90;80.40;;;;;;5028054;28;20072;-59
2021/11/07 05:12:35;;;;;;;13.88;2.70;;;10.00;82.00;;;;;;5028332;28;20054;-60
2021/11/07 05:15:02;;;;;;;19.15;2.33;;;10.00;81.10;;;;;;5028123;28;20084;-63
2021/11/07 05:17:29;;;;;;;15.82;3.08;;;9.90;82.20;;;;;;5028226;28;20144;-59
2021/11/07 05:19:55;;;;;;;17.45;2.60;;;9.90;82.20;;;;;;5028525;28;20194;-58
2021/11/07 05:22:23;;;;;;;9.80;2.17;;;9.80;82.20;;;;;;5026853;28;20076;-59
2021/11/07 05:24:49;;;;;;;15.02;2.00;;;9.80;82.20;;;;;;5028009;28;20391;-59
2021/11/07 05:27:16;;;;;;;9.25;1.48;;;9.80;82.50;;;;;;5027666;28;20474;-60
2021/11/07 05:29:43;;;;;;;13.63;2.10;;;9.80;82.40;;;;;;5026762;28;20095;-59
2021/11/07 05:32:10;;;;;;;14.25;1.85;;;9.70;82.40;;;;;;5027423;28;20643;-58
2021/11/07 05:34:40;;;;;;;13.35;2.03;;;9.70;83.00;;;;;;5027736;28;20096;-59
2021/11/07 05:37:08;;;;;;;15.65;2.92;;;9.70;83.00;;;;;;5007338;28;20034;-59
2021/11/07 05:39:35;;;;;;;11.88;2.78;;;9.60;82.90;;;;;;5024350;28;20128;-59
2021/11/07 05:42:02;;;;;;;13.32;3.20;;;9.60;82.10;;;;;;5027241;28;20069;-59
2021/11/07 05:44:29;;;;;;;12.07;2.83;;;9.60;82.70;;;;;;5026416;28;20707;-59
2021/11/07 05:46:57;;;;;;;15.50;3.60;;;9.50;83.10;;;;;;5027733;28;20041;-59
2021/11/07 05:49:24;;;;;;;20.50;3.00;;;9.50;83.00;;;;;;5027220;28;20045;-58
2021/11/07 05:51:51;;;;;;;15.55;3.60;;;9.50;83.80;;;;;;5027611;28;20065;-59
2021/11/07 05:54:17;;;;;;;15.45;3.03;;;9.50;83.60;;;;;;5027578;28;20085;-57
2021/11/07 05:56:44;;;;;;;18.13;3.22;;;9.50;83.80;;;;;;5026863;28;20041;-60
2021/11/07 05:59:11;;;;;;;18.33;2.53;;;9.50;84.20;;;;;;5027778;28;20084;-58
2021/11/07 06:01:38;;;;;;;13.10;2.28;;;9.40;83.60;;;;;;5025974;28;20049;-58
2021/11/07 06:04:05;;;;;;;12.63;2.83;;;9.40;84.80;;;;;;5027340;28;20095;-60
2021/11/07 06:06:32;;;;;;;19.63;3.00;;;9.30;84.40;;;;;;5027236;28;20080;-61
2021/11/07 06:08:59;;;;;;;23.42;2.47;;;9.30;84.60;;;;;;5026150;28;20042;-60
2021/11/07 06:11:25;;;;;;;15.30;2.80;;;9.30;84.80;;;;;;5027251;28;20053;-59
2021/11/07 06:13:52;;;;;;;12.35;2.28;;;9.30;84.90;;;;;;5025916;28;20073;-58
2021/11/07 06:16:19;;;;;;;13.80;2.60;;;9.30;84.90;;;;;;5027456;28;20049;-60
2021/11/07 06:18:46;;;;;;;21.48;3.05;;;9.20;85.00;;;;;;5026905;28;20084;-59
2021/11/07 06:21:13;;;;;;;13.60;3.78;;;9.20;85.20;;;;;;5007491;28;20717;-60
2021/11/07 06:23:39;;;;;;;18.35;5.07;;;9.20;85.30;;;;;;5021040;28;20057;-59
2021/11/07 06:26:06;;;;;;;17.75;4.47;;;9.10;85.40;;;;;;5027064;28;20516;-60
2021/11/07 06:28:34;;;;;;;14.20;2.42;;;9.10;85.50;;;;;;5026730;28;20085;-60
2021/11/07 06:31:05;;;;;;;17.80;2.95;;;9.10;85.80;;;;;;5027159;28;20081;-59
2021/11/07 06:33:33;;;;;;;13.32;3.42;;;9.00;85.90;;;;;;5025587;28;20374;-56
2021/11/07 06:36:00;;;;;;;21.05;3.45;;;9.00;86.00;;;;;;5026263;28;20602;-57
2021/11/07 06:38:26;;;;;;;11.88;2.88;;;9.20;86.30;;;;;;5025331;28;20093;-60
2021/11/07 06:40:54;;;;;;;19.95;3.53;;;9.00;86.20;;;;;;5026968;28;20572;-60
2021/11/07 06:43:21;;;;;;;18.83;3.25;;;9.00;86.30;;;;;;5026860;28;20046;-60
2021/11/07 06:45:48;;;;;;;14.63;2.83;;;9.00;86.40;;;;;;5030151;28;20057;-60
2021/11/07 06:48:14;;;;;;;12.55;2.42;;;8.90;86.30;;;;;;5028591;28;20045;-60
2021/11/07 06:50:42;;;;;;;17.63;3.10;;;8.90;86.40;;;;;;5030691;28;20125;-57
2021/11/07 06:53:08;;;;;;;18.23;4.03;;;8.90;86.50;;;;;;5031070;28;20049;-59
2021/11/07 06:55:35;;;;;;;13.27;2.50;;;8.90;86.50;;;;;;5030962;28;20045;-59
2021/11/07 06:58:02;;;;;;;18.00;2.70;;;8.90;86.60;;;;;;5031366;28;20099;-59
2021/11/07 07:00:29;;;;;;;13.10;2.35;;;8.80;86.60;;;;;;5030343;28;20080;-59
2021/11/07 07:02:56;;;;;;;20.17;3.03;;;8.90;86.70;;;;;;5029214;28;20041;-59
2021/11/07 07:05:22;;;;;;;15.15;3.10;;;8.80;86.80;;;;;;5029052;28;20057;-59
2021/11/07 07:07:53;;;;;;;13.80;2.33;;;8.90;86.90;;;;;;5029267;28;20091;-58
2021/11/07 07:10:29;;;;;;;16.35;5.18;;;8.80;86.90;;;;;;5030389;28;20057;-59
2021/11/07 07:13:05;;;;;;;15.52;2.38;;;8.80;87.00;;;;;;5009865;28;20088;-61
2021/11/07 07:15:41;;;;;;;14.00;3.25;;;8.80;87.00;;;;;;5025033;28;20054;-59
2021/11/07 07:34:32;;;;;;;7.85;1.95;;;8.70;87.50;;;;;;4996185;28;20133;-59
2021/11/07 07:36:59;;;;;;;15.80;3.53;;;8.70;87.60;;;;;;5025344;28;20045;-60
2021/11/07 07:39:26;;;;;;;11.32;2.33;;;8.70;87.60;;;;;;5029984;28;20520;-58
2021/11/07 07:41:53;;;;;;;21.40;3.25;;;8.80;87.60;;;;;;5028559;28;20045;-59
2021/11/07 07:44:21;;;;;;;26.00;2.70;;;8.80;87.60;;;;;;5030072;28;20058;-59
2021/11/07 07:46:48;;;;;;;23.38;3.60;;;8.70;87.60;;;;;;5029183;28;20124;-58
2021/11/07 07:49:17;;;;;;;17.77;3.28;;;8.80;87.60;;;;;;5028469;28;20091;-59
2021/11/07 07:51:45;;;;;;;16.48;3.00;;;8.80;87.60;;;;;;5029326;28;20125;-60
2021/11/07 07:54:12;;;;;;;20.30;2.70;;;8.90;87.60;;;;;;5029625;28;20092;-56
2021/11/07 07:56:38;;;;;;;14.93;2.17;;;8.90;87.60;;;;;;5029141;28;20050;-59
2021/11/07 07:59:05;;;;;;;23.02;4.30;;;8.90;87.60;;;;;;5029490;28;20140;-58
2021/11/07 08:01:33;;;;;;;19.88;2.35;;;8.90;88.20;;;;;;5029140;28;20037;-58
2021/11/07 08:04:00;;;;;;;17.15;4.13;;;9.00;87.70;;;;;;5029644;28;20085;-58
2021/11/07 08:06:27;;;;;;;16.50;3.03;;;9.00;87.60;;;;;;5029938;28;20041;-58
2021/11/07 08:08:54;;;;;;;13.23;2.85;;;9.00;87.60;;;;;;5029604;28;20085;-58
2021/11/07 08:11:22;;;;;;;14.02;2.10;;;9.00;87.50;;;;;;5027453;28;20219;-58
2021/11/07 08:13:50;;;;;;;13.18;2.60;;;9.00;87.60;;;;;;5029458;28;20045;-58
2021/11/07 08:16:18;;;;;;;16.35;2.40;;;9.00;87.50;;;;;;5029299;28;20087;-57
2021/11/07 08:18:45;;;;;;;13.43;3.20;;;9.00;87.70;;;;;;5029403;28;20077;-59
2021/11/07 08:21:12;;;;;;;16.95;3.03;;;9.00;87.50;;;;;;5028437;28;20129;-60
2021/11/07 08:23:39;;;;;;;19.08;2.80;;;9.00;87.60;;;;;;5028461;28;20132;-60
2021/11/07 08:26:05;;;;;;;18.35;3.28;;;9.00;87.80;;;;;;5028570;28;20085;-59
2021/11/07 08:28:32;;;;;;;16.65;3.38;;;9.00;88.30;;;;;;5026965;28;20046;-59
2021/11/07 08:31:07;;;;;;;13.27;3.72;;;9.10;87.80;;;;;;5028238;28;20049;-60
2021/11/07 08:33:35;;;;;;;15.32;2.80;;;9.10;87.80;;;;;;5027193;28;20137;-55
2021/11/07 08:36:08;;;;;;;10.60;2.78;;;9.10;87.80;;;;;;5026120;28;20041;-53
2021/11/07 08:38:41;;;;;;;13.98;5.68;;;9.20;87.60;;;;;;5028017;28;20100;-54
2021/11/07 08:41:10;;;;;;;19.88;3.05;;;9.20;87.20;;;;;;5021198;28;20049;-56
2021/11/07 09:00:20;;;;;;;10.52;2.45;;;9.70;85.80;;;;;;5022156;28;20132;-54
2021/11/07 09:05:34;;;;;;;10.90;3.08;;;9.70;86.10;;;;;;5026099;28;20072;-58
2021/11/07 09:10:35;;;;;;;18.77;3.53;;;9.80;86.30;;;;;;5026535;28;20126;-53
2021/11/07 09:13:03;;;;;;;20.48;3.00;;;9.80;85.90;;;;;;5028057;28;20129;-56
2021/11/07 09:15:31;;;;;;;16.33;2.85;;;9.80;86.00;;;;;;5026075;28;20092;-57
2021/11/07 09:17:59;;;;;;;23.95;2.90;;;9.90;86.20;;;;;;5027310;28;20095;-55
2021/11/07 09:20:40;;;;;;;13.07;2.60;;;9.90;85.90;;;;;;5025286;28;20052;-54
2021/11/07 09:23:15;;;;;;;16.25;3.45;;;10.00;85.60;;;;;;5022203;28;20042;-54
2021/11/07 09:26:12;;;;;;;13.88;2.63;;;10.00;86.40;;;;;;5025338;28;20053;-54
2021/11/07 09:28:54;;;;;;;21.52;3.22;;;10.10;85.90;;;;;;5025733;28;20077;-55
2021/11/07 09:36:35;;;;;;;25.00;3.85;;;10.20;84.80;;;;;;5020892;28;20099;-56
2021/11/07 09:41:52;;;;;;;19.33;3.33;;;10.30;83.80;;;;;;5025376;28;20045;-54
2021/11/07 09:44:21;;;;;;;16.23;3.70;;;10.30;85.10;;;;;;5025333;28;20045;-55
2021/11/07 09:46:57;;;;;;;9.65;2.08;;;10.30;84.20;;;;;;5025759;28;20076;-53
2021/11/07 09:49:27;;;;;;;19.83;3.08;;;10.40;85.00;;;;;;5025334;28;20069;-55
2021/11/07 09:52:06;;;;;;;22.15;4.03;;;10.30;84.00;;;;;;5019475;28;20049;-55
2021/11/07 09:54:33;;;;;;;20.80;3.85;;;10.30;83.80;;;;;;5024376;28;20085;-54
2021/11/07 09:57:01;;;;;;;18.02;3.20;;;10.40;84.30;;;;;;5027146;28;20126;-55
2021/11/07 09:59:29;;;;;;;15.55;3.65;;;10.40;83.80;;;;;;5026985;28;20176;-56
2021/11/07 10:01:58;;;;;;;11.52;2.95;;;10.50;84.60;;;;;;5025771;28;20045;-54
2021/11/07 10:04:26;;;;;;;25.25;4.13;;;10.50;83.00;;;;;;5027312;28;20618;-54
2021/11/07 10:06:57;;;;;;;16.30;3.17;;;10.70;83.10;;;;;;5026875;28;20530;-54
2021/11/07 10:09:38;;;;;;;20.15;4.63;;;10.70;83.90;;;;;;5027488;28;20538;-54
2021/11/07 10:12:15;;;;;;;18.67;3.60;;;10.80;81.70;;;;;;5026293;28;20064;-56
2021/11/07 10:14:59;;;;;;;14.02;3.10;;;10.90;79.80;;;;;;5027090;28;20175;-55
2021/11/07 10:17:39;;;;;;;21.33;4.53;;;11.00;80.70;;;;;;5024315;28;20136;-56
2021/11/07 10:20:23;;;;;;;15.30;2.80;;;11.00;79.10;;;;;;5026552;28;20045;-55
2021/11/07 10:23:12;;;;;;;21.23;3.03;;;11.20;81.50;;;;;;5027139;28;20461;-56
2021/11/07 10:25:50;;;;;;;10.30;2.95;;;11.20;76.40;;;;;;5019014;28;20072;-53
2021/11/07 10:28:29;;;;;;;14.80;2.78;;;11.30;76.10;;;;;;5024442;28;20088;-56
2021/11/07 10:31:06;;;;;;;21.52;2.90;;;11.30;74.60;;;;;;5019631;28;20053;-55
2021/11/07 10:33:59;;;;;;;24.92;3.13;;;11.40;73.90;;;;;;5026902;28;20080;-55
2021/11/07 10:37:25;;;;;;;23.10;3.67;;;11.50;73.40;;;;;;5022670;28;20095;-53
2021/11/07 10:52:46;;;;;;;11.35;2.65;;;11.70;73.90;;;;;;5026558;28;20065;-55
2021/11/07 10:55:18;;;;;;;16.88;3.08;;;11.70;75.00;;;;;;5026457;28;20049;-53
2021/11/07 10:57:49;;;;;;;10.25;2.78;;;11.60;70.40;;;;;;5026565;28;20116;-55
2021/11/07 11:00:20;;;;;;;16.77;3.75;;;11.50;70.50;;;;;;5026347;28;20057;-55
2021/11/07 11:02:55;;;;;;;24.13;4.95;;;11.60;72.60;;;;;;5026734;28;20042;-55
2021/11/07 11:05:29;;;;;;;16.23;3.60;;;11.70;72.30;;;;;;5026356;28;20096;-54
2021/11/07 11:08:03;;;;;;;27.85;3.90;;;11.70;73.80;;;;;;5025371;28;20048;-55
2021/11/07 11:10:50;;;;;;;22.38;3.30;;;11.70;72.30;;;;;;5025293;28;20088;-53
2021/11/07 11:13:27;;;;;;;14.98;2.90;;;11.70;72.20;;;;;;5021749;28;20113;-53
2021/11/07 11:16:25;;;;;;;21.30;4.40;;;11.60;67.90;;;;;;5026776;28;20145;-55
2021/11/07 11:31:58;;;;;;;24.20;3.78;;;11.80;71.60;;;;;;5029296;28;20077;-55
2021/11/07 11:34:36;;;;;;;17.80;3.95;;;11.80;69.60;;;;;;5029687;28;20049;-56
2021/11/07 11:37:13;;;;;;;13.20;2.88;;;11.80;71.20;;;;;;5030185;28;20056;-56
2021/11/07 11:39:45;;;;;;;21.88;3.85;;;11.90;71.00;;;;;;5013208;28;20136;-56
2021/11/07 11:42:22;;;;;;;17.75;4.40;;;11.80;69.80;;;;;;5027380;28;20459;-55
2021/11/07 11:44:53;;;;;;;23.35;5.05;;;11.90;68.80;;;;;;5012730;28;20085;-55
2021/11/07 11:47:46;;;;;;;17.45;2.67;;;12.00;68.20;;;;;;5012621;28;20089;-55
2021/11/07 11:53:04;;;;;;;13.88;3.80;;;12.00;68.70;;;;;;5028215;28;20045;-55
2021/11/07 11:55:37;;;;;;;17.25;2.67;;;12.10;68.00;;;;;;5009257;28;20132;-54
2021/11/07 12:00:51;;;;;;;16.83;3.63;;;12.30;70.30;;;;;;5029010;28;20536;-55
2021/11/07 12:04:05;;;;;;;;;;;12.30;67.10;;;;;;5029481;28;20067;-56
2021/11/07 12:06:45;;;;;;;12.15;2.88;;;12.30;65.40;;;;;;5029006;28;19951;-56
2021/11/07 12:12:28;;;;;;;13.13;2.92;;;12.30;68.50;;;;;;5029258;28;20128;-52
2021/11/07 12:15:12;;;;;;;16.48;3.38;;;12.30;66.80;;;;;;5020217;28;20069;-51
2021/11/07 12:17:41;;;;;;;12.35;2.80;;;12.30;64.50;;;;;;5027935;28;20065;-52
2021/11/07 12:20:28;;;;;;;20.92;3.03;;;12.20;66.90;;;;;;5028975;28;20099;-55
2021/11/07 12:23:18;;;;;;;18.00;3.83;;;12.30;63.90;;;;;;5029381;28;20053;-54
2021/11/07 12:25:45;;;;;;;20.80;3.53;;;12.30;64.20;;;;;;5028450;28;20136;-56
2021/11/07 12:28:13;;;;;;;17.95;3.55;;;12.30;68.90;;;;;;5029010;28;20045;-51
2021/11/07 12:30:40;;;;;;;25.40;4.10;;;12.40;66.00;;;;;;5028457;28;20523;-52
2021/11/07 12:33:10;;;;;;;16.80;3.88;;;12.40;67.20;;;;;;5025140;28;20064;-54
2021/11/07 12:35:43;;;;;;;11.13;2.58;;;12.40;66.90;;;;;;5028693;28;20045;-54
2021/11/07 12:41:05;;;;;;;17.63;3.53;;;12.30;65.10;;;;;;5028087;28;20077;-50
2021/11/07 12:43:51;;;;;;;18.50;3.95;;;12.40;65.10;;;;;;5027978;28;20129;-50
2021/11/07 12:46:46;;;;;;;26.50;3.55;;;12.30;64.30;;;;;;5028396;28;20144;-52
2021/11/07 12:49:16;;;;;;;17.98;3.92;;;12.40;64.20;;;;;;5026429;28;20551;-53
2021/11/07 12:52:08;;;;;;;17.83;2.60;;;12.40;66.90;;;;;;5028352;28;20081;-53
2021/11/07 12:54:36;;;;;;;18.38;3.42;;;12.40;65.90;;;;;;5027798;28;20497;-55
2021/11/07 12:57:05;;;;;;;26.70;3.60;;;12.50;69.30;;;;;;5027727;28;20615;-51
2021/11/07 12:59:44;;;;;;;21.42;3.28;;;12.50;68.20;;;;;;5028337;28;20140;-55
2021/11/07 13:02:28;;;;;;;26.13;3.70;;;12.50;64.60;;;;;;5027978;28;20556;-56
2021/11/07 13:07:53;;;;;;;13.80;3.97;;;12.50;66.70;;;;;;5027457;28;20111;-54
2021/11/07 13:10:25;;;;;;;8.65;2.70;;;12.40;64.60;;;;;;5028073;28;20479;-56
2021/11/07 13:12:55;;;;;;;23.75;3.88;;;12.50;66.00;;;;;;5027664;28;20103;-56
2021/11/07 13:21:02;;;;;;;14.65;2.97;;;12.40;65.40;;;;;;5027916;28;20081;-55
2021/11/07 13:23:45;;;;;;;18.65;3.17;;;12.40;67.10;;;;;;5026569;28;20145;-52
2021/11/07 13:29:09;;;;;;;22.83;3.85;;;12.50;65.90;;;;;;5025775;28;20088;-54
2021/11/07 13:34:22;;;;;;;15.07;4.35;;;12.50;65.70;;;;;;5025945;28;20132;-54
2021/11/07 13:36:49;;;;;;;24.25;4.07;;;12.60;67.40;;;;;;5027589;28;20071;-54
2021/11/07 13:39:28;;;;;;;11.68;2.95;;;12.60;65.60;;;;;;5027434;28;20057;-55
2021/11/07 13:42:15;;;;;;;16.52;3.08;;;12.50;63.60;;;;;;5020410;28;20046;-54
2021/11/07 13:44:52;;;;;;;16.13;2.85;;;12.50;65.40;;;;;;5026335;28;20073;-54
2021/11/07 13:47:19;;;;;;;12.88;2.88;;;12.50;63.70;;;;;;5027378;28;20080;-54
2021/11/07 13:49:52;;;;;;;23.35;5.07;;;12.50;63.50;;;;;;5026957;28;20511;-54
2021/11/07 13:52:19;;;;;;;21.95;3.80;;;12.50;62.90;;;;;;5026856;28;20080;-54
2021/11/07 13:54:47;;;;;;;14.30;3.45;;;12.60;63.70;;;;;;5026920;28;20049;-54
2021/11/07 13:57:14;;;;;;;18.52;3.78;;;12.60;65.60;;;;;;5026908;28;20068;-55
2021/11/07 13:59:44;;;;;;;17.15;2.90;;;12.60;62.60;;;;;;5027208;28;20103;-53
2021/11/07 14:02:18;;;;;;;25.70;2.97;;;12.60;62.30;;;;;;5026605;28;20145;-55
2021/11/07 14:04:51;;;;;;;26.42;3.90;;;12.60;62.40;;;;;;5027170;28;20492;-54
2021/11/07 14:07:40;;;;;;;16.80;4.20;;;12.60;63.50;;;;;;5027041;28;20087;-54
2021/11/07 14:10:12;;;;;;;11.40;4.20;;;12.60;62.40;;;;;;5023631;28;20091;-57
2021/11/07 14:12:47;;;;;;;13.68;3.40;;;12.70;65.40;;;;;;5019512;28;20508;-55
2021/11/07 14:15:18;;;;;;;19.25;3.65;;;12.80;64.40;;;;;;5023819;28;20049;-56
2021/11/07 14:17:46;;;;;;;13.23;2.47;;;12.90;64.10;;;;;;5020057;28;20080;-53
2021/11/07 14:20:14;;;;;;;18.38;3.08;;;12.90;63.40;;;;;;5027064;28;20136;-55
2021/11/07 14:23:10;;;;;;;18.75;3.15;;;12.70;63.40;;;;;;5026270;28;20073;-53
2021/11/07 14:25:48;;;;;;;18.65;3.38;;;12.70;62.90;;;;;;5025427;28;20046;-61
2021/11/07 14:28:21;;;;;;;20.90;3.45;;;12.60;63.30;;;;;;5026747;28;20136;-58
2021/11/07 14:30:49;;;;;;;32.80;5.07;;;12.60;64.10;;;;;;5023674;28;20057;-56
2021/11/07 14:33:25;;;;;;;22.77;4.18;;;12.60;65.40;;;;;;5025378;28;20133;-56
2021/11/07 14:35:55;;;;;;;16.55;3.03;;;12.60;64.20;;;;;;5025302;28;20136;-55
2021/11/07 14:38:43;;;;;;;15.30;2.95;;;12.60;62.80;;;;;;5025506;28;20104;-54
2021/11/07 14:41:57;;;;;;;10.75;3.28;;;12.60;64.90;;;;;;5022603;28;20634;-55
2021/11/07 14:44:25;;;;;;;15.27;4.95;;;12.60;65.30;;;;;;5024798;28;20612;-55
2021/11/07 14:47:07;;;;;;;25.20;4.57;;;12.70;65.80;;;;;;5018691;28;20515;-53
2021/11/07 14:49:41;;;;;;;16.02;3.65;;;12.60;62.80;;;;;;5026540;28;20046;-53
2021/11/07 14:55:31;;;;;;;19.15;3.70;;;12.50;64.10;;;;;;5018521;28;20069;-53
2021/11/07 14:58:29;;;;;;;19.98;5.80;;;12.40;63.00;;;;;;5026145;28;20554;-54
2021/11/07 15:01:13;;;;;;;15.15;3.40;;;12.40;62.70;;;;;;5026180;28;20057;-53